Time;durP1;ratioP1;P1;durP2;ratioP2;P2;SDS_P1;SDS_P2;PMS_P1;PMS_P2;Temp;Humidity;BMP_temperature;BMP_pressure;BME280_temperature;BME280_humidity;BME280_pressure;Samples;Min_cycle;Max_cycle;Signal;HPM_P1;HPM_P2
2022/11/05 00:18:27;;;;;;;9.40;4.78;;;;;;;22.66;49.32;102489.13;4184406;28;20110;-73
2022/11/05 00:20:36;;;;;;;7.82;4.82;;;;;;;22.48;49.32;102450.34;4183863;28;20037;-72
2022/11/05 00:25:13;;;;;;;7.28;4.32;;;;;;;22.64;49.24;102485.75;4183500;28;20087;-73
2022/11/05 00:27:16;;;;;;;6.65;4.40;;;;;;;22.42;49.45;102445.81;4183572;28;20469;-73
2022/11/05 00:29:18;;;;;;;8.05;5.05;;;;;;;22.46;49.32;102456.19;4183539;28;20090;-73
2022/11/05 00:31:22;;;;;;;7.22;4.30;;;;;;;22.61;49.21;102472.31;4183492;28;20082;-72
2022/11/05 00:33:23;;;;;;;8.88;4.45;;;;;;;22.51;49.16;102463.78;4183767;28;20127;-73
2022/11/05 00:35:24;;;;;;;7.07;4.57;;;;;;;22.47;49.29;102457.03;4183221;28;20091;-73
2022/11/05 00:37:29;;;;;;;9.18;4.70;;;;;;;22.57;49.38;102474.75;4183713;28;20086;-73
2022/11/05 00:39:30;;;;;;;8.70;4.85;;;;;;;22.60;49.46;102484.59;4183483;28;20419;-73
2022/11/05 00:41:31;;;;;;;8.98;4.90;;;;;;;22.44;49.49;102452.78;4183305;28;20468;-73
2022/11/05 00:45:52;;;;;;;12.23;5.45;;;;;;;22.62;49.55;102484.31;4183545;28;20438;-72
2022/11/05 00:50:14;;;;;;;8.23;4.65;;;;;;;22.61;49.32;102480.69;4184171;28;20091;-73
2022/11/05 00:54:34;;;;;;;9.85;5.30;;;;;;;22.62;49.58;102485.16;4183195;28;20087;-73
2022/11/05 00:56:36;;;;;;;7.43;4.80;;;;;;;22.61;49.46;102486.25;4183054;28;20431;-73
2022/11/05 00:58:37;;;;;;;8.35;4.90;;;;;;;22.62;49.40;102487.09;4183024;28;20514;-73
2022/11/05 01:00:41;;;;;;;8.15;5.07;;;;;;;22.62;49.39;102487.94;4183027;28;20059;-73
2022/11/05 01:02:42;;;;;;;8.18;4.85;;;;;;;22.61;49.30;102483.47;4182977;28;20071;-73
2022/11/05 01:04:46;;;;;;;12.40;5.10;;;;;;;22.62;49.50;102481.53;4183324;28;20485;-73
2022/11/05 01:06:47;;;;;;;9.00;5.00;;;;;;;22.63;49.50;102480.41;4183046;28;20041;-73
2022/11/05 01:08:48;;;;;;;13.73;5.35;;;;;;;22.38;49.37;102442.66;4182982;28;20058;-73
2022/11/05 01:10:56;;;;;;;9.02;5.03;;;;;;;22.62;49.67;102473.16;4183164;28;20049;-73
2022/11/05 01:12:57;;;;;;;10.38;4.90;;;;;;;22.52;49.53;102462.69;4183046;28;20111;-73
2022/11/05 01:14:59;;;;;;;8.10;4.85;;;;;;;22.59;49.64;102468.94;4183085;28;20106;-73
2022/11/05 01:17:01;;;;;;;8.15;4.85;;;;;;;22.62;49.32;102482.38;4213981;28;20176;-73
2022/11/05 01:19:07;;;;;;;8.98;5.10;;;;;;;22.61;49.59;102469.53;4182691;28;20082;-72
2022/11/05 01:21:10;;;;;;;8.30;4.93;;;;;;;22.47;49.39;102451.44;4182949;28;20362;-72
2022/11/05 01:23:12;;;;;;;9.65;4.78;;;;;;;22.63;49.34;102483.22;4182451;28;20087;-73
2022/11/05 01:25:13;;;;;;;8.20;5.00;;;;;;;22.57;49.57;102469.19;4182643;28;20041;-73
2022/11/05 01:27:15;;;;;;;9.63;4.88;;;;;;;22.62;49.33;102476.78;4182779;28;20037;-73
2022/11/05 01:29:16;;;;;;;9.63;5.28;;;;;;;22.62;49.43;102476.78;4182601;28;20079;-72
2022/11/05 01:31:18;;;;;;;9.75;5.35;;;;;;;22.52;49.32;102460.75;4182642;28;20029;-73
2022/11/05 01:33:22;;;;;;;9.50;5.18;;;;;;;22.60;49.60;102465.06;4182485;28;20044;-73
2022/11/05 01:35:23;;;;;;;7.78;4.93;;;;;;;22.61;49.61;102477.91;4182401;28;20094;-73
2022/11/05 01:37:28;;;;;;;10.07;5.00;;;;;;;22.59;49.47;102474.53;4182489;28;20037;-72
2022/11/05 01:39:34;;;;;;;9.88;5.07;;;;;;;22.51;49.53;102474.94;4182521;28;20048;-74
2022/11/05 01:41:36;;;;;;;5.88;4.22;;;;;;;22.62;49.54;102489.91;4182672;28;20041;-73
2022/11/05 01:44:00;;;;;;;8.15;5.15;;;;;;;22.55;49.43;102484.50;4182671;28;20538;-74
2022/11/05 01:46:07;;;;;;;8.57;4.43;;;;;;;22.59;49.47;102485.69;4182293;28;20446;-72
2022/11/05 01:48:28;;;;;;;9.07;4.80;;;;;;;22.39;49.29;102454.66;4182273;28;20025;-73
2022/11/05 01:50:40;;;;;;;8.45;5.18;;;;;;;22.61;49.30;102491.84;4182180;28;20020;-72
2022/11/05 01:52:41;;;;;;;6.95;4.00;;;;;;;22.61;49.34;102486.25;4182577;28;20036;-74
2022/11/05 01:54:43;;;;;;;6.63;4.47;;;;;;;22.61;49.39;102491.84;4182135;28;20441;-71
2022/11/05 01:56:55;;;;;;;10.35;4.97;;;;;;;22.60;49.65;102494.91;4181738;28;20037;-72
2022/11/05 01:59:05;;;;;;;7.28;4.60;;;;;;;22.61;49.42;102486.25;4182028;28;20078;-72
2022/11/05 02:01:07;;;;;;;7.78;4.90;;;;;;;22.62;49.17;102489.91;4180316;28;20516;-74
2022/11/05 02:03:08;;;;;;;8.77;4.60;;;;;;;22.61;49.18;102486.25;4178513;28;20041;-71
2022/11/05 02:05:12;;;;;;;7.43;4.80;;;;;;;22.61;49.31;102491.84;4181548;28;20476;-73
2022/11/05 02:07:17;;;;;;;8.32;4.90;;;;;;;22.57;49.18;102477.56;4191892;28;20037;-72
2022/11/05 02:09:29;;;;;;;9.38;4.97;;;;;;;22.60;49.47;102486.53;4198081;28;20109;-74
2022/11/05 02:11:31;;;;;;;6.93;4.35;;;;;;;22.60;49.44;102484.59;4197161;28;20029;-73
2022/11/05 02:13:35;;;;;;;7.20;4.35;;;;;;;22.61;49.36;102486.25;4198576;28;20528;-73
2022/11/05 02:16:06;;;;;;;7.30;4.40;;;;;;;22.58;49.58;102476.44;4198092;28;20101;-73
2022/11/05 02:18:28;;;;;;;7.97;4.22;;;;;;;22.50;49.32;102462.13;4197791;28;20269;-71
2022/11/05 02:20:45;;;;;;;8.38;4.00;;;;;;;22.60;49.27;102479.00;4198214;28;20020;-72
2022/11/05 02:23:30;;;;;;;8.95;5.10;;;;;;;22.46;49.25;102456.19;4198174;28;20426;-72
2022/11/05 02:25:49;;;;;;;10.35;4.60;;;;;;;22.61;49.53;102474.25;4198137;28;20036;-73
2022/11/05 02:28:08;;;;;;;9.07;5.00;;;;;;;22.59;49.53;102471.75;4198158;28;20032;-73
2022/11/05 02:30:28;;;;;;;7.85;4.18;;;;;;;22.37;49.16;102441.00;4197706;28;20094;-73
2022/11/05 02:32:49;;;;;;;6.80;4.15;;;;;;;22.60;49.31;102475.38;4198185;28;20033;-72
2022/11/05 02:34:56;;;;;;;7.45;4.30;;;;;;;22.61;49.24;102458.38;4197974;28;20058;-71
2022/11/05 02:37:36;;;;;;;6.72;4.32;;;;;;;22.58;49.52;102470.03;4197711;28;20510;-72
2022/11/05 02:40:04;;;;;;;6.95;4.43;;;;;;;22.59;49.43;102457.78;4194780;28;20048;-71
2022/11/05 02:42:11;;;;;;;7.72;4.60;;;;;;;22.62;49.18;102460.06;4198016;28;20430;-71
2022/11/05 02:44:31;;;;;;;8.05;4.50;;;;;;;22.60;49.35;102455.84;4197669;28;20077;-72
2022/11/05 02:46:58;;;;;;;7.40;5.10;;;;;;;22.58;49.28;102464.44;4197015;28;20045;-72
2022/11/05 02:49:11;;;;;;;6.80;4.40;;;;;;;22.60;49.30;102462.25;4193146;28;20094;-72
2022/11/05 02:51:26;;;;;;;7.85;4.72;;;;;;;22.61;49.31;102463.94;4185801;28;20028;-73
2022/11/05 02:53:59;;;;;;;8.45;4.85;;;;;;;22.46;49.34;102439.47;4181410;28;20041;-74
2022/11/05 02:56:06;;;;;;;7.15;4.43;;;;;;;22.57;49.43;102454.41;4192695;28;20041;-68
2022/11/05 02:58:08;;;;;;;5.65;4.07;;;;;;;22.53;49.38;102450.41;4197292;28;20419;-71
2022/11/05 03:00:43;;;;;;;8.43;4.47;;;;;;;22.63;49.29;102452.53;4196838;28;20094;-74
2022/11/05 03:02:47;;;;;;;8.05;4.70;;;;;;;22.69;49.47;102465.47;4187741;28;20078;-71
2022/11/05 03:04:48;;;;;;;8.63;4.57;;;;;;;22.72;49.23;102460.19;4197679;28;20090;-74
2022/11/05 03:07:16;;;;;;;7.05;4.18;;;;;;;22.72;49.17;102462.97;4197142;28;20028;-72
2022/11/05 03:09:39;;;;;;;7.95;4.70;;;;;;;22.68;49.03;102441.44;4197788;28;20168;-72
2022/11/05 03:11:57;;;;;;;7.47;4.55;;;;;;;22.71;48.85;102455.72;4198023;28;20113;-72
2022/11/05 03:14:14;;;;;;;8.27;4.75;;;;;;;22.77;48.97;102453.84;4199459;28;20345;-72
2022/11/05 03:16:35;;;;;;;8.57;4.45;;;;;;;22.74;48.94;102446.00;4192236;28;20024;-72
2022/11/05 03:18:57;;;;;;;6.75;4.45;;;;;;;22.71;48.91;102433.41;4195907;28;20044;-72
2022/11/05 03:21:07;;;;;;;5.97;4.10;;;;;;;22.78;48.71;102434.06;4193929;28;20040;-71
2022/11/05 03:23:32;;;;;;;6.75;4.40;;;;;;;22.78;48.84;102436.03;4196695;28;20033;-72
2022/11/05 03:25:42;;;;;;;7.65;4.22;;;;;;;22.78;49.00;102430.44;4196769;28;20090;-72
2022/11/05 03:27:49;;;;;;;6.38;4.30;;;;;;;22.80;48.66;102429.06;4196172;28;20094;-73
2022/11/05 03:29:57;;;;;;;7.18;4.35;;;;;;;22.80;48.99;102429.06;4196725;28;20036;-73
2022/11/05 03:32:03;;;;;;;7.00;3.80;;;;;;;22.72;49.01;102415.53;4197388;28;20110;-73
2022/11/05 03:34:06;;;;;;;9.68;4.20;;;;;;;22.80;49.08;102423.47;4197554;28;20032;-73
2022/11/05 03:36:15;;;;;;;6.07;4.10;;;;;;;22.65;48.80;102398.16;4197542;28;20033;-73
2022/11/05 03:38:28;;;;;;;6.85;4.35;;;;;;;22.76;48.96;102408.34;4197423;28;20094;-72
2022/11/05 03:40:34;;;;;;;7.85;4.68;;;;;;;22.63;48.78;102388.34;4197430;28;20521;-72
2022/11/05 03:42:39;;;;;;;8.20;4.60;;;;;;;22.79;48.70;102409.78;4196833;28;20086;-73
2022/11/05 03:44:46;;;;;;;7.78;4.60;;;;;;;22.57;48.79;102365.97;4197273;28;20118;-73
2022/11/05 03:46:55;;;;;;;6.65;3.95;;;;;;;22.83;48.72;102406.22;4197088;28;20036;-72
2022/11/05 03:49:02;;;;;;;6.55;4.40;;;;;;;22.62;48.80;102376.34;4197303;28;20487;-72
2022/11/05 03:51:13;;;;;;;7.50;3.90;;;;;;;22.83;48.82;102403.44;4197214;28;20036;-72
2022/11/05 03:53:20;;;;;;;8.43;4.82;;;;;;;22.78;48.81;102402.53;4197393;28;20021;-72
2022/11/05 03:55:30;;;;;;;7.30;4.15;;;;;;;22.63;48.82;102366.88;4192065;28;20037;-71
2022/11/05 03:57:36;;;;;;;8.07;4.10;;;;;;;22.70;48.75;102377.84;4180293;28;20037;-71
2022/11/05 03:59:43;;;;;;;8.15;4.60;;;;;;;22.55;48.68;102354.22;4180841;28;20037;-72
2022/11/05 04:01:44;;;;;;;7.93;4.45;;;;;;;22.74;48.90;102379.88;4180676;28;20098;-73
2022/11/05 04:03:46;;;;;;;7.30;4.38;;;;;;;22.85;48.58;102397.59;4180767;28;20025;-72
2022/11/05 04:13:22;;;;;;;6.95;3.78;;;;;;;22.84;48.64;102390.31;4179772;28;20094;-72
2022/11/05 04:15:10;;;;;;;7.18;3.88;;;;;;;22.80;49.01;102378.81;4180693;28;20453;-72
2022/11/05 04:17:11;;;;;;;9.02;4.97;;;;;;;22.68;48.82;102346.56;4180200;28;20443;-72
2022/11/05 04:24:06;;;;;;;7.50;4.13;;;;;;;22.85;48.84;102375.25;4180347;28;20102;-72
2022/11/05 04:24:08;;;;;;;;;;;;;;;22.84;48.89;102368.81;4195788;28;20166;-72
2022/11/05 04:26:09;;;;;;;7.05;3.90;;;;;;;22.89;48.87;102350.47;4198247;28;20359;-71
2022/11/05 04:28:14;;;;;;;5.63;3.65;;;;;;;22.79;48.55;102343.66;4200213;28;20024;-73
2022/11/05 04:30:23;;;;;;;7.30;3.95;;;;;;;22.84;49.20;102356.81;4201562;28;20028;-71
2022/11/05 04:32:24;;;;;;;7.40;4.55;;;;;;;22.87;48.75;102364.69;4199095;28;20441;-72
2022/11/05 04:34:25;;;;;;;5.07;4.13;;;;;;;22.61;48.79;102316.06;4199223;28;20048;-74
2022/11/05 04:36:27;;;;;;;7.35;4.00;;;;;;;22.87;48.95;102355.47;4199282;28;20094;-74
2022/11/05 04:38:31;;;;;;;5.00;3.78;;;;;;;22.20;48.76;102253.34;4199683;28;20082;-73
2022/11/05 04:40:33;;;;;;;6.68;3.67;;;;;;;22.76;48.88;102338.56;4193363;28;20079;-71
2022/11/05 04:42:34;;;;;;;6.90;4.00;;;;;;;22.86;48.69;102367.72;4183689;28;20054;-73
2022/11/05 04:44:35;;;;;;;7.60;3.85;;;;;;;22.87;48.70;102361.06;4202322;28;20098;-72
2022/11/05 04:46:36;;;;;;;5.85;3.85;;;;;;;22.86;48.89;102353.75;4199149;28;20048;-72
2022/11/05 04:48:38;;;;;;;7.18;3.92;;;;;;;22.87;49.17;102361.06;4199935;28;20024;-74
2022/11/05 04:50:39;;;;;;;6.40;3.90;;;;;;;21.97;48.62;102218.13;4199797;28;20048;-72
2022/11/05 04:52:40;;;;;;;6.93;3.90;;;;;;;22.87;49.02;102361.06;4199829;28;20078;-72
2022/11/05 04:54:41;;;;;;;5.15;3.70;;;;;;;22.87;49.31;102361.06;4200325;28;20429;-72
2022/11/05 04:56:46;;;;;;;6.03;3.40;;;;;;;22.86;49.22;102360.19;4199354;28;20102;-72
2022/11/05 04:58:47;;;;;;;6.10;3.70;;;;;;;22.30;49.00;102278.56;4198291;28;20045;-72
2022/11/05 05:00:51;;;;;;;4.97;3.55;;;;;;;22.87;49.17;102370.28;4199497;28;20041;-72
2022/11/05 05:02:55;;;;;;;6.35;3.90;;;;;;;22.89;49.02;102364.41;4199838;28;20045;-72
2022/11/05 05:04:57;;;;;;;4.15;3.30;;;;;;;22.88;49.00;102368.31;4199749;28;20044;-72
2022/11/05 05:06:58;;;;;;;6.55;3.95;;;;;;;22.71;48.99;102330.16;4199494;28;20044;-73
2022/11/05 05:08:59;;;;;;;6.63;3.95;;;;;;;22.85;48.83;102358.50;4198025;28;20090;-72
2022/11/05 05:11:03;;;;;;;6.35;3.75;;;;;;;22.88;48.92;102363.59;4204394;28;20028;-72
2022/11/05 05:13:10;;;;;;;6.10;3.58;;;;;;;22.89;49.20;102370.00;4201321;28;20090;-71
2022/11/05 05:15:14;;;;;;;6.35;3.70;;;;;;;22.89;49.02;102358.84;4199479;28;20521;-73
2022/11/05 05:17:16;;;;;;;5.05;3.67;;;;;;;22.67;48.78;102328.97;4199289;28;20541;-73
2022/11/05 05:19:17;;;;;;;5.05;3.50;;;;;;;22.77;49.04;102359.81;4198631;28;20036;-73
2022/11/05 05:21:39;;;;;;;7.15;4.22;;;;;;;22.89;48.88;102370.88;4199414;28;20534;-73
2022/11/05 05:23:40;;;;;;;5.05;3.33;;;;;;;22.80;48.81;102352.88;4198711;28;20044;-72
2022/11/05 05:25:41;;;;;;;5.50;3.33;;;;;;;22.90;49.03;102377.28;4197055;28;20048;-73
2022/11/05 05:27:45;;;;;;;6.40;3.65;;;;;;;22.84;49.02;102363.25;4201157;28;20101;-73
2022/11/05 05:29:47;;;;;;;4.20;3.40;;;;;;;22.87;48.91;102366.63;4213303;28;20036;-73
2022/11/05 05:31:48;;;;;;;5.72;3.53;;;;;;;22.87;49.11;102349.91;4199001;28;20479;-73
2022/11/05 05:33:52;;;;;;;5.40;3.65;;;;;;;22.88;48.81;102351.56;4197835;28;20040;-73
2022/11/05 05:35:57;;;;;;;6.38;4.15;;;;;;;22.89;48.97;102350.47;4204258;28;20097;-73
2022/11/05 05:37:59;;;;;;;6.50;4.28;;;;;;;22.91;49.09;102345.47;4215541;28;20479;-73
2022/11/05 05:40:00;;;;;;;5.97;3.38;;;;;;;22.68;48.96;102302.78;4208763;28;20028;-73
2022/11/05 05:42:04;;;;;;;6.35;3.80;;;;;;;22.71;48.75;102305.03;4199058;28;20028;-72
2022/11/05 05:44:06;;;;;;;4.80;3.80;;;;;;;22.91;48.81;102331.53;4197654;28;20041;-73
2022/11/05 05:46:11;;;;;;;6.25;3.90;;;;;;;22.83;48.99;102316.06;4199157;28;20044;-73
2022/11/05 05:48:12;;;;;;;5.28;3.50;;;;;;;22.91;48.94;102325.94;4198642;28;20041;-73
2022/11/05 05:50:14;;;;;;;5.43;3.40;;;;;;;22.92;48.78;102330.44;4198902;28;20032;-73
2022/11/05 05:52:18;;;;;;;6.80;4.05;;;;;;;22.91;48.80;102332.41;4206491;28;20028;-73
2022/11/05 05:54:21;;;;;;;5.10;3.30;;;;;;;22.91;49.03;102334.31;4215536;28;20028;-73
2022/11/05 05:56:22;;;;;;;6.68;3.88;;;;;;;22.88;49.00;102337.63;4215203;28;20272;-73
2022/11/05 05:58:25;;;;;;;4.63;3.20;;;;;;;22.90;48.80;102339.06;4215310;28;20124;-72
2022/11/05 06:00:30;;;;;;;7.03;3.78;;;;;;;22.90;48.86;102338.22;4215421;28;20032;-73
2022/11/05 06:02:34;;;;;;;6.57;3.30;;;;;;;22.89;48.76;102337.38;4214047;28;20537;-73
2022/11/05 06:04:35;;;;;;;6.03;3.90;;;;;;;22.90;48.86;102338.22;4215193;28;20044;-73
2022/11/05 06:06:36;;;;;;;6.78;4.05;;;;;;;22.89;48.81;102334.59;4210181;28;20081;-73
2022/11/05 06:08:38;;;;;;;5.65;3.90;;;;;;;22.90;49.00;102339.06;4196556;28;20074;-73
2022/11/05 06:10:39;;;;;;;5.05;3.60;;;;;;;22.89;48.87;102331.78;4198061;28;20098;-73
2022/11/05 06:12:43;;;;;;;4.68;3.35;;;;;;;22.60;48.72;102289.28;4198435;28;20097;-73
2022/11/05 06:14:45;;;;;;;5.68;3.50;;;;;;;22.89;48.83;102336.50;4197943;28;20036;-73
2022/11/05 06:16:46;;;;;;;7.55;3.67;;;;;;;22.60;48.61;102283.69;4197175;28;20097;-73
2022/11/05 06:18:48;;;;;;;6.57;3.78;;;;;;;22.83;48.85;102319.69;4200216;28;20086;-73
2022/11/05 06:20:49;;;;;;;6.10;3.75;;;;;;;22.89;48.66;102329.00;4215175;28;20035;-73
2022/11/05 06:22:56;;;;;;;5.88;3.33;;;;;;;22.89;48.97;102328.13;4214985;28;20044;-73
2022/11/05 06:24:58;;;;;;;5.05;3.25;;;;;;;22.91;48.73;102331.53;4212787;28;20089;-73
2022/11/05 06:26:59;;;;;;;5.05;3.30;;;;;;;22.78;48.71;102307.66;4197795;28;20109;-73
2022/11/05 06:29:00;;;;;;;5.07;3.58;;;;;;;22.91;48.89;102334.31;4197842;28;20041;-73
2022/11/05 06:31:02;;;;;;;5.80;3.47;;;;;;;22.92;48.65;102336.03;4198206;28;20044;-73
2022/11/05 06:33:04;;;;;;;4.82;3.60;;;;;;;22.70;48.80;102297.78;4198240;28;20078;-74
2022/11/05 06:35:06;;;;;;;5.28;3.17;;;;;;;22.90;48.54;102329.84;4198219;28;20025;-73
2022/11/05 06:37:07;;;;;;;6.10;3.85;;;;;;;22.90;48.74;102335.44;4198402;28;20024;-74
2022/11/05 06:39:11;;;;;;;5.70;3.80;;;;;;;22.76;48.54;102309.84;4198015;28;20032;-73
2022/11/05 06:41:13;;;;;;;7.35;3.80;;;;;;;22.80;48.62;102313.78;4197910;28;20102;-73
2022/11/05 06:43:14;;;;;;;5.60;3.55;;;;;;;22.79;48.94;102324.13;4198207;28;20581;-73
2022/11/05 06:45:16;;;;;;;5.82;3.20;;;;;;;22.90;48.66;102332.63;4197571;28;20100;-73
2022/11/05 06:47:19;;;;;;;6.18;3.35;;;;;;;22.90;48.58;102338.22;4197823;28;20094;-73
2022/11/05 06:49:24;;;;;;;5.35;3.20;;;;;;;22.86;48.92;102325.84;4186367;28;20070;-73
2022/11/05 06:51:26;;;;;;;6.95;3.47;;;;;;;22.90;48.55;102338.22;4184158;28;20045;-73
2022/11/05 06:53:29;;;;;;;7.43;3.72;;;;;;;22.90;48.64;102318.69;4189024;28;20483;-73
2022/11/05 06:55:31;;;;;;;7.18;3.47;;;;;;;22.90;48.88;102338.22;4197049;28;20052;-73
2022/11/05 06:57:36;;;;;;;5.18;3.28;;;;;;;22.90;48.97;102322.31;4197570;28;20568;-73
2022/11/05 06:59:38;;;;;;;4.22;2.90;;;;;;;22.79;48.90;102315.75;4194033;28;20480;-73
2022/11/05 07:01:45;;;;;;;5.80;3.45;;;;;;;22.89;48.66;102325.34;4191748;28;20491;-73
2022/11/05 07:03:47;;;;;;;5.22;3.42;;;;;;;22.91;48.64;102328.72;4197943;28;20032;-73
2022/11/05 07:05:50;;;;;;;5.63;3.28;;;;;;;22.83;48.71;102316.91;4209334;28;20048;-73
2022/11/05 07:07:51;;;;;;;4.72;3.25;;;;;;;22.90;48.77;102329.84;4214870;28;20032;-73
2022/11/05 07:09:52;;;;;;;5.32;3.28;;;;;;;22.92;48.98;102331.28;4202474;28;20044;-73
2022/11/05 07:11:54;;;;;;;4.88;3.00;;;;;;;22.90;48.56;102341.00;4197343;28;20032;-73
2022/11/05 07:14:00;;;;;;;5.30;3.38;;;;;;;22.89;48.70;102326.22;4203493;28;20101;-73
2022/11/05 07:16:04;;;;;;;4.75;2.88;;;;;;;22.90;48.72;102332.63;4189364;28;20410;-74
2022/11/05 07:18:08;;;;;;;3.90;2.60;;;;;;;22.89;48.89;102333.72;4193016;28;20433;-74
2022/11/05 07:20:12;;;;;;;5.20;3.10;;;;;;;22.84;48.79;102328.91;4186379;28;20037;-73
2022/11/05 07:22:14;;;;;;;6.90;3.67;;;;;;;22.63;48.69;102288.75;4183821;28;20086;-73
2022/11/05 07:24:15;;;;;;;3.88;2.88;;;;;;;22.91;48.66;102337.09;4185711;28;20036;-73
2022/11/05 07:26:16;;;;;;;4.63;3.13;;;;;;;22.90;48.88;102327.91;4197208;28;20040;-73
2022/11/05 07:28:18;;;;;;;4.25;3.08;;;;;;;22.91;48.70;102323.16;4196859;28;20086;-73
2022/11/05 07:30:19;;;;;;;5.68;3.67;;;;;;;22.88;48.60;102318.91;4196990;28;20048;-73
2022/11/05 07:32:23;;;;;;;3.95;2.92;;;;;;;22.90;48.73;102318.69;4196472;28;20040;-73
2022/11/05 07:34:24;;;;;;;5.93;3.33;;;;;;;22.90;48.92;102318.69;4197054;28;20079;-73
2022/11/05 07:36:26;;;;;;;5.93;3.10;;;;;;;22.67;48.75;102281.53;4196794;28;20074;-73
2022/11/05 07:38:27;;;;;;;5.38;3.10;;;;;;;22.89;48.66;102322.56;4194114;28;20435;-73
2022/11/05 07:40:29;;;;;;;7.18;3.22;;;;;;;22.79;48.87;102304.56;4181260;28;20404;-73
2022/11/05 07:42:30;;;;;;;5.68;3.10;;;;;;;22.92;48.75;102319.28;4180746;28;20491;-73
2022/11/05 07:44:31;;;;;;;5.93;3.28;;;;;;;22.90;48.80;102321.47;4181117;28;20029;-73
2022/11/05 07:46:35;;;;;;;5.15;3.13;;;;;;;22.91;48.87;102320.34;4187522;28;20106;-73
2022/11/05 07:48:37;;;;;;;4.43;3.00;;;;;;;22.90;48.69;102322.31;4189963;28;20373;-73
2022/11/05 07:50:38;;;;;;;4.55;3.03;;;;;;;22.91;48.88;102328.72;4180469;28;20103;-73
2022/11/05 07:52:39;;;;;;;4.07;2.90;;;;;;;22.72;48.72;102297.50;4194910;28;20518;-73
2022/11/05 07:54:41;;;;;;;4.82;3.25;;;;;;;22.87;48.87;102311.66;4181965;28;20488;-73
2022/11/05 07:56:42;;;;;;;5.88;3.55;;;;;;;22.89;48.82;102319.75;4183162;28;20048;-73
2022/11/05 07:58:46;;;;;;;4.80;2.83;;;;;;;22.90;49.03;102318.69;4186995;28;20090;-73
2022/11/05 08:00:47;;;;;;;4.75;3.25;;;;;;;22.91;48.85;102328.72;4193906;28;20071;-73
2022/11/05 08:03:11;;;;;;;5.15;3.08;;;;;;;22.89;48.64;102326.22;4187303;28;20098;-73
2022/11/05 08:05:18;;;;;;;4.80;3.40;;;;;;;22.80;48.72;102300.69;4200155;28;20108;-73
2022/11/05 08:07:19;;;;;;;4.68;2.83;;;;;;;22.91;48.72;102320.34;4197185;28;20090;-73
2022/11/05 08:09:23;;;;;;;5.25;3.05;;;;;;;22.83;48.94;102297.38;4199628;28;20909;-73
2022/11/05 08:11:24;;;;;;;3.47;2.67;;;;;;;22.90;48.67;102311.16;4199553;28;20066;-73
2022/11/05 08:13:26;;;;;;;4.82;2.92;;;;;;;22.91;49.14;102318.44;4199635;28;20041;-73
2022/11/05 08:15:27;;;;;;;5.68;3.17;;;;;;;22.88;48.75;102301.34;4199539;28;20102;-73
2022/11/05 08:17:29;;;;;;;5.07;2.83;;;;;;;22.91;48.77;102314.78;4183408;28;20037;-73
2022/11/05 08:19:30;;;;;;;5.93;3.22;;;;;;;22.89;49.12;102306.69;4188634;28;20106;-73
2022/11/05 08:21:31;;;;;;;4.15;3.13;;;;;;;22.90;49.12;102304.72;4199829;28;20040;-73
2022/11/05 08:23:32;;;;;;;3.95;2.88;;;;;;;22.90;48.77;102304.72;4199788;28;20110;-74
2022/11/05 08:25:34;;;;;;;4.93;2.97;;;;;;;22.90;48.74;102299.97;4199755;28;20564;-73
2022/11/05 08:27:36;;;;;;;5.18;2.90;;;;;;;22.90;48.92;102299.13;4200101;28;20028;-73
2022/11/05 08:29:40;;;;;;;4.75;3.08;;;;;;;22.90;48.87;102287.97;4199539;28;20048;-73
2022/11/05 08:31:45;;;;;;;4.18;2.80;;;;;;;22.77;48.90;102267.72;4200079;28;20037;-73
2022/11/05 08:33:49;;;;;;;5.25;3.35;;;;;;;22.81;48.84;102273.59;4204370;28;20036;-73
2022/11/05 08:35:53;;;;;;;4.70;2.87;;;;;;;22.87;48.98;102280.94;4215741;28;20956;-73
2022/11/05 08:37:59;;;;;;;4.43;3.28;;;;;;;22.77;48.92;102264.94;4216398;28;20812;-73
2022/11/05 08:40:00;;;;;;;3.92;2.97;;;;;;;22.89;48.96;102275.97;4216639;28;20032;-73
2022/11/05 08:42:02;;;;;;;4.18;2.72;;;;;;;22.70;48.80;102244.75;4216236;28;20044;-73
2022/11/05 08:44:03;;;;;;;3.83;3.03;;;;;;;22.78;48.78;102263.00;4216672;28;20082;-73
2022/11/05 08:46:07;;;;;;;3.67;2.80;;;;;;;22.91;49.07;102284.06;4210446;28;20032;-73
2022/11/05 08:48:11;;;;;;;3.78;2.63;;;;;;;22.92;48.99;102285.78;4199933;28;20033;-73
2022/11/05 08:50:13;;;;;;;3.70;2.92;;;;;;;22.92;49.00;102286.63;4199858;28;20090;-73
2022/11/05 08:52:14;;;;;;;3.70;2.88;;;;;;;22.62;49.22;102239.63;4200268;28;20487;-73
2022/11/05 08:54:20;;;;;;;5.75;2.85;;;;;;;22.91;49.19;102292.44;4199875;28;20054;-73
2022/11/05 08:56:22;;;;;;;4.35;2.70;;;;;;;22.79;48.67;102271.09;4199463;28;20033;-73
2022/11/05 08:58:24;;;;;;;5.88;3.50;;;;;;;22.92;48.96;102297.78;4199916;28;20456;-73
2022/11/05 09:00:27;;;;;;;4.10;2.58;;;;;;;22.72;49.06;102270.44;4199717;28;20102;-73
2022/11/05 09:02:28;;;;;;;5.80;3.10;;;;;;;22.71;49.16;102279.09;4199955;28;20029;-73
2022/11/05 09:04:29;;;;;;;5.20;2.72;;;;;;;22.92;49.25;102314.53;4199491;28;20483;-73
2022/11/05 09:06:33;;;;;;;4.03;2.83;;;;;;;22.92;49.17;102313.69;4199011;28;20101;-73
2022/11/05 09:08:34;;;;;;;3.78;2.58;;;;;;;22.92;48.88;102331.28;4200044;28;20053;-73
2022/11/05 09:10:42;;;;;;;4.30;2.63;;;;;;;22.69;49.24;102287.72;4199741;28;20074;-73
2022/11/05 09:12:44;;;;;;;6.47;2.75;;;;;;;22.92;49.10;102333.22;4199208;28;20437;-73
2022/11/05 09:14:45;;;;;;;4.65;2.72;;;;;;;22.88;48.82;102323.66;4199463;28;20372;-73
2022/11/05 09:16:46;;;;;;;2.90;2.20;;;;;;;22.88;49.12;102326.44;4199047;28;20037;-73
2022/11/05 09:18:49;;;;;;;3.50;2.63;;;;;;;22.82;49.14;102315.22;4199387;28;20040;-73
2022/11/05 09:20:50;;;;;;;4.65;2.53;;;;;;;22.90;48.87;102332.63;4198942;28;20044;-74
2022/11/05 09:22:54;;;;;;;4.68;2.97;;;;;;;22.81;49.09;102313.53;4199281;28;20045;-73
2022/11/05 09:24:58;;;;;;;4.50;3.13;;;;;;;22.89;49.05;102331.78;4199206;28;20434;-73
2022/11/05 09:27:02;;;;;;;4.00;2.55;;;;;;;22.93;49.02;102334.91;4199349;28;20036;-73
2022/11/05 09:29:03;;;;;;;4.33;2.90;;;;;;;22.91;48.83;102337.09;4199223;28;20503;-73
2022/11/05 09:31:07;;;;;;;4.15;2.35;;;;;;;22.91;49.11;102346.34;4199272;28;20471;-73
2022/11/05 09:33:09;;;;;;;5.03;2.55;;;;;;;22.91;48.87;102340.78;4199187;28;20086;-73
2022/11/05 09:35:10;;;;;;;3.92;2.75;;;;;;;22.80;49.23;102328.59;4198823;28;20037;-73
2022/11/05 09:37:11;;;;;;;4.05;2.70;;;;;;;22.93;49.08;102343.28;4198718;28;20086;-73
2022/11/05 09:39:12;;;;;;;5.43;2.60;;;;;;;22.77;49.11;102306.81;4198975;28;20044;-73
2022/11/05 09:41:21;;;;;;;5.05;2.45;;;;;;;22.93;48.92;102332.13;4199144;28;20029;-73
2022/11/05 09:43:37;;;;;;;4.78;2.45;;;;;;;22.91;48.82;102331.53;4199625;28;20094;-73
2022/11/05 09:45:38;;;;;;;4.15;2.53;;;;;;;22.93;48.88;102337.72;4198632;28;20418;-73
2022/11/05 09:47:43;;;;;;;5.68;2.83;;;;;;;22.92;48.89;102331.28;4198718;28;20098;-73
2022/11/05 09:49:49;;;;;;;5.03;2.78;;;;;;;22.92;49.13;102338.81;4198796;28;20037;-73
2022/11/05 09:51:53;;;;;;;3.92;2.10;;;;;;;22.93;49.32;102334.91;4198747;28;20032;-74
2022/11/05 09:53:55;;;;;;;3.23;2.47;;;;;;;22.93;48.87;102344.13;4198686;28;20048;-73
2022/11/05 09:55:59;;;;;;;4.63;2.78;;;;;;;22.93;49.10;102332.97;4198533;28;20032;-73
2022/11/05 09:58:05;;;;;;;3.35;2.63;;;;;;;22.78;49.04;102314.06;4198487;28;20426;-73
2022/11/05 10:00:08;;;;;;;2.88;2.03;;;;;;;22.26;49.17;102233.59;4204084;28;20040;-73
2022/11/05 10:02:09;;;;;;;4.32;2.85;;;;;;;22.93;48.84;102338.53;4215349;28;20028;-73
2022/11/05 10:04:24;;;;;;;3.83;2.38;;;;;;;22.91;49.07;102334.31;4215525;28;20028;-73
2022/11/05 10:06:27;;;;;;;4.35;2.50;;;;;;;22.93;49.09;102334.91;4215037;28;20093;-73
2022/11/05 10:08:37;;;;;;;4.22;2.70;;;;;;;22.74;49.12;102298.09;4198828;28;20037;-74
2022/11/05 10:10:52;;;;;;;5.85;2.97;;;;;;;22.92;48.91;102327.66;4198621;28;20029;-73
2022/11/05 10:12:58;;;;;;;4.75;2.35;;;;;;;22.93;49.10;102332.13;4198733;28;20029;-74
2022/11/05 10:15:15;;;;;;;3.92;2.40;;;;;;;22.92;49.17;102331.28;4181930;28;20446;-73
2022/11/05 10:17:27;;;;;;;4.82;2.72;;;;;;;22.93;49.30;102332.97;4189887;28;20032;-73
2022/11/05 10:19:53;;;;;;;3.80;2.67;;;;;;;22.90;49.11;102335.44;4198334;28;20041;-74